sensor_id;sensor_type;location;lat;lon;timestamp;P1;durP1;ratioP1;P2;durP2;ratioP2
72569;SDS011;60594;50.204;8.844;2023-05-27T00:00:08;6.00;;;2.10;;
72569;SDS011;60594;50.204;8.844;2023-05-27T00:02:55;9.57;;;2.40;;
72569;SDS011;60594;50.204;8.844;2023-05-27T00:05:22;7.97;;;2.33;;
72569;SDS011;60594;50.204;8.844;2023-05-27T00:07:48;8.88;;;2.20;;
72569;SDS011;60594;50.204;8.844;2023-05-27T00:10:15;7.55;;;2.05;;
72569;SDS011;60594;50.204;8.844;2023-05-27T00:12:42;8.93;;;2.28;;
72569;SDS011;60594;50.204;8.844;2023-05-27T00:15:08;7.03;;;2.40;;
72569;SDS011;60594;50.204;8.844;2023-05-27T00:17:35;7.50;;;2.88;;
72569;SDS011;60594;50.204;8.844;2023-05-27T00:20:02;7.35;;;2.17;;
72569;SDS011;60594;50.204;8.844;2023-05-27T00:22:32;8.23;;;2.58;;
72569;SDS011;60594;50.204;8.844;2023-05-27T00:25:00;8.05;;;2.58;;
72569;SDS011;60594;50.204;8.844;2023-05-27T00:27:27;6.75;;;2.50;;
72569;SDS011;60594;50.204;8.844;2023-05-27T00:29:53;8.38;;;2.25;;
72569;SDS011;60594;50.204;8.844;2023-05-27T00:32:20;7.35;;;2.42;;
72569;SDS011;60594;50.204;8.844;2023-05-27T00:34:46;8.35;;;2.67;;
72569;SDS011;60594;50.204;8.844;2023-05-27T00:37:13;9.77;;;2.50;;
72569;SDS011;60594;50.204;8.844;2023-05-27T00:39:40;7.90;;;2.42;;
72569;SDS011;60594;50.204;8.844;2023-05-27T00:42:07;7.35;;;2.30;;
72569;SDS011;60594;50.204;8.844;2023-05-27T00:44:33;11.98;;;2.53;;
72569;SDS011;60594;50.204;8.844;2023-05-27T00:47:00;12.05;;;2.80;;
72569;SDS011;60594;50.204;8.844;2023-05-27T00:49:26;5.50;;;2.00;;
72569;SDS011;60594;50.204;8.844;2023-05-27T00:51:53;8.00;;;2.38;;
72569;SDS011;60594;50.204;8.844;2023-05-27T00:54:19;7.57;;;2.35;;
72569;SDS011;60594;50.204;8.844;2023-05-27T00:56:46;7.88;;;2.38;;
72569;SDS011;60594;50.204;8.844;2023-05-27T00:59:13;5.90;;;2.53;;
72569;SDS011;60594;50.204;8.844;2023-05-27T01:01:40;10.70;;;2.40;;
72569;SDS011;60594;50.204;8.844;2023-05-27T01:04:09;7.28;;;2.28;;
72569;SDS011;60594;50.204;8.844;2023-05-27T01:12:10;8.95;;;3.08;;
72569;SDS011;60594;50.204;8.844;2023-05-27T01:14:44;10.50;;;2.25;;
72569;SDS011;60594;50.204;8.844;2023-05-27T01:17:14;11.70;;;2.85;;
72569;SDS011;60594;50.204;8.844;2023-05-27T01:19:44;5.90;;;2.10;;
72569;SDS011;60594;50.204;8.844;2023-05-27T01:22:11;7.25;;;2.17;;
72569;SDS011;60594;50.204;8.844;2023-05-27T01:24:39;7.90;;;2.20;;
72569;SDS011;60594;50.204;8.844;2023-05-27T01:27:09;7.43;;;2.63;;
72569;SDS011;60594;50.204;8.844;2023-05-27T01:29:42;8.40;;;2.58;;
72569;SDS011;60594;50.204;8.844;2023-05-27T01:32:17;10.40;;;2.63;;
72569;SDS011;60594;50.204;8.844;2023-05-27T01:34:57;7.10;;;2.72;;
72569;SDS011;60594;50.204;8.844;2023-05-27T01:37:31;8.30;;;2.60;;
72569;SDS011;60594;50.204;8.844;2023-05-27T01:40:02;7.03;;;2.60;;
72569;SDS011;60594;50.204;8.844;2023-05-27T01:42:32;7.75;;;2.45;;
72569;SDS011;60594;50.204;8.844;2023-05-27T01:45:02;4.00;;;1.90;;
72569;SDS011;60594;50.204;8.844;2023-05-27T01:47:33;6.78;;;2.58;;
72569;SDS011;60594;50.204;8.844;2023-05-27T01:50:00;12.27;;;2.95;;
72569;SDS011;60594;50.204;8.844;2023-05-27T01:52:28;9.32;;;2.70;;
72569;SDS011;60594;50.204;8.844;2023-05-27T01:54:55;7.57;;;2.97;;
72569;SDS011;60594;50.204;8.844;2023-05-27T01:57:21;9.35;;;2.65;;
72569;SDS011;60594;50.204;8.844;2023-05-27T01:59:49;7.70;;;2.30;;
72569;SDS011;60594;50.204;8.844;2023-05-27T02:02:15;7.70;;;2.85;;
72569;SDS011;60594;50.204;8.844;2023-05-27T02:04:41;7.90;;;2.22;;
72569;SDS011;60594;50.204;8.844;2023-05-27T02:07:08;7.43;;;2.55;;
72569;SDS011;60594;50.204;8.844;2023-05-27T02:09:34;7.43;;;2.60;;
72569;SDS011;60594;50.204;8.844;2023-05-27T02:12:02;8.48;;;2.72;;
72569;SDS011;60594;50.204;8.844;2023-05-27T02:16:57;9.32;;;2.33;;
72569;SDS011;60594;50.204;8.844;2023-05-27T02:19:24;10.35;;;2.70;;
72569;SDS011;60594;50.204;8.844;2023-05-27T02:21:51;11.75;;;2.97;;
72569;SDS011;60594;50.204;8.844;2023-05-27T02:24:18;10.20;;;2.90;;
72569;SDS011;60594;50.204;8.844;2023-05-27T02:26:44;7.95;;;2.40;;
72569;SDS011;60594;50.204;8.844;2023-05-27T02:29:10;6.38;;;2.47;;
72569;SDS011;60594;50.204;8.844;2023-05-27T02:31:37;8.82;;;3.13;;
72569;SDS011;60594;50.204;8.844;2023-05-27T02:34:05;7.75;;;2.63;;
72569;SDS011;60594;50.204;8.844;2023-05-27T02:36:32;6.72;;;2.70;;
72569;SDS011;60594;50.204;8.844;2023-05-27T02:38:59;8.93;;;3.08;;
72569;SDS011;60594;50.204;8.844;2023-05-27T02:41:26;5.68;;;2.47;;
72569;SDS011;60594;50.204;8.844;2023-05-27T02:43:52;7.05;;;2.60;;
72569;SDS011;60594;50.204;8.844;2023-05-27T02:46:19;8.25;;;3.15;;
72569;SDS011;60594;50.204;8.844;2023-05-27T02:48:46;9.90;;;3.03;;
72569;SDS011;60594;50.204;8.844;2023-05-27T02:51:13;8.63;;;3.17;;
72569;SDS011;60594;50.204;8.844;2023-05-27T02:53:39;11.38;;;3.17;;
72569;SDS011;60594;50.204;8.844;2023-05-27T02:56:06;8.68;;;3.03;;
72569;SDS011;60594;50.204;8.844;2023-05-27T02:58:32;9.30;;;3.00;;
72569;SDS011;60594;50.204;8.844;2023-05-27T03:00:59;8.18;;;3.22;;
72569;SDS011;60594;50.204;8.844;2023-05-27T03:03:25;9.07;;;3.30;;
72569;SDS011;60594;50.204;8.844;2023-05-27T03:05:52;8.68;;;3.42;;
72569;SDS011;60594;50.204;8.844;2023-05-27T03:08:18;7.15;;;3.10;;
72569;SDS011;60594;50.204;8.844;2023-05-27T03:10:45;10.40;;;3.65;;
72569;SDS011;60594;50.204;8.844;2023-05-27T03:13:11;8.20;;;3.20;;
72569;SDS011;60594;50.204;8.844;2023-05-27T03:15:38;11.55;;;2.85;;
72569;SDS011;60594;50.204;8.844;2023-05-27T03:18:04;5.88;;;3.08;;
72569;SDS011;60594;50.204;8.844;2023-05-27T03:20:31;9.60;;;3.13;;
72569;SDS011;60594;50.204;8.844;2023-05-27T03:22:58;7.68;;;2.63;;
72569;SDS011;60594;50.204;8.844;2023-05-27T03:25:24;9.07;;;3.08;;
72569;SDS011;60594;50.204;8.844;2023-05-27T03:27:51;11.05;;;3.42;;
72569;SDS011;60594;50.204;8.844;2023-05-27T03:30:19;9.73;;;2.92;;
72569;SDS011;60594;50.204;8.844;2023-05-27T03:32:49;8.75;;;3.15;;
72569;SDS011;60594;50.204;8.844;2023-05-27T03:35:20;8.55;;;3.05;;
72569;SDS011;60594;50.204;8.844;2023-05-27T03:37:47;11.52;;;2.80;;
72569;SDS011;60594;50.204;8.844;2023-05-27T03:40:14;8.65;;;2.97;;
72569;SDS011;60594;50.204;8.844;2023-05-27T03:42:40;9.27;;;3.20;;
72569;SDS011;60594;50.204;8.844;2023-05-27T03:45:07;8.07;;;2.85;;
72569;SDS011;60594;50.204;8.844;2023-05-27T03:47:34;7.43;;;3.08;;
72569;SDS011;60594;50.204;8.844;2023-05-27T03:50:02;10.48;;;3.00;;
72569;SDS011;60594;50.204;8.844;2023-05-27T03:52:30;10.52;;;3.55;;
72569;SDS011;60594;50.204;8.844;2023-05-27T03:54:56;7.47;;;2.78;;
72569;SDS011;60594;50.204;8.844;2023-05-27T03:57:23;9.30;;;3.08;;
72569;SDS011;60594;50.204;8.844;2023-05-27T03:59:49;9.23;;;3.10;;
72569;SDS011;60594;50.204;8.844;2023-05-27T04:02:16;9.02;;;3.22;;
72569;SDS011;60594;50.204;8.844;2023-05-27T04:04:42;8.35;;;2.95;;
72569;SDS011;60594;50.204;8.844;2023-05-27T04:07:09;11.80;;;3.35;;
72569;SDS011;60594;50.204;8.844;2023-05-27T04:09:35;11.13;;;3.42;;
72569;SDS011;60594;50.204;8.844;2023-05-27T04:12:02;8.77;;;3.22;;
72569;SDS011;60594;50.204;8.844;2023-05-27T04:14:28;10.55;;;3.38;;
72569;SDS011;60594;50.204;8.844;2023-05-27T04:16:55;10.98;;;3.88;;
72569;SDS011;60594;50.204;8.844;2023-05-27T04:19:21;10.02;;;3.67;;
72569;SDS011;60594;50.204;8.844;2023-05-27T04:21:48;9.93;;;3.00;;
72569;SDS011;60594;50.204;8.844;2023-05-27T04:24:15;10.05;;;3.40;;
72569;SDS011;60594;50.204;8.844;2023-05-27T04:26:43;10.55;;;3.78;;
72569;SDS011;60594;50.204;8.844;2023-05-27T04:29:09;9.60;;;3.30;;
72569;SDS011;60594;50.204;8.844;2023-05-27T04:31:38;12.38;;;3.78;;
72569;SDS011;60594;50.204;8.844;2023-05-27T04:34:11;13.82;;;4.07;;
72569;SDS011;60594;50.204;8.844;2023-05-27T04:36:38;10.18;;;3.22;;
72569;SDS011;60594;50.204;8.844;2023-05-27T04:39:09;6.05;;;2.90;;
72569;SDS011;60594;50.204;8.844;2023-05-27T04:41:39;12.15;;;3.55;;
72569;SDS011;60594;50.204;8.844;2023-05-27T04:44:05;8.02;;;3.45;;
72569;SDS011;60594;50.204;8.844;2023-05-27T04:46:37;9.25;;;3.88;;
72569;SDS011;60594;50.204;8.844;2023-05-27T04:49:05;16.38;;;4.13;;
72569;SDS011;60594;50.204;8.844;2023-05-27T04:51:32;10.90;;;3.63;;
72569;SDS011;60594;50.204;8.844;2023-05-27T04:54:02;9.32;;;4.32;;
72569;SDS011;60594;50.204;8.844;2023-05-27T04:56:29;12.43;;;3.50;;
72569;SDS011;60594;50.204;8.844;2023-05-27T04:58:55;9.60;;;3.25;;
72569;SDS011;60594;50.204;8.844;2023-05-27T05:01:27;9.88;;;3.50;;
72569;SDS011;60594;50.204;8.844;2023-05-27T05:04:02;13.52;;;3.13;;
72569;SDS011;60594;50.204;8.844;2023-05-27T05:06:40;10.68;;;3.10;;
72569;SDS011;60594;50.204;8.844;2023-05-27T05:09:07;10.82;;;3.25;;
72569;SDS011;60594;50.204;8.844;2023-05-27T05:11:35;10.48;;;3.58;;
72569;SDS011;60594;50.204;8.844;2023-05-27T05:14:02;8.90;;;3.28;;
72569;SDS011;60594;50.204;8.844;2023-05-27T05:16:29;8.07;;;3.47;;
72569;SDS011;60594;50.204;8.844;2023-05-27T05:18:56;9.73;;;3.55;;
72569;SDS011;60594;50.204;8.844;2023-05-27T05:21:23;9.45;;;3.60;;
72569;SDS011;60594;50.204;8.844;2023-05-27T05:23:50;9.60;;;3.75;;
72569;SDS011;60594;50.204;8.844;2023-05-27T05:26:17;9.73;;;3.60;;
72569;SDS011;60594;50.204;8.844;2023-05-27T05:28:45;11.15;;;3.78;;
72569;SDS011;60594;50.204;8.844;2023-05-27T05:31:11;9.98;;;3.17;;
72569;SDS011;60594;50.204;8.844;2023-05-27T05:33:38;8.10;;;3.15;;
72569;SDS011;60594;50.204;8.844;2023-05-27T05:36:06;8.48;;;3.50;;
72569;SDS011;60594;50.204;8.844;2023-05-27T05:39:05;7.65;;;3.80;;
72569;SDS011;60594;50.204;8.844;2023-05-27T05:41:33;7.97;;;3.10;;
72569;SDS011;60594;50.204;8.844;2023-05-27T05:44:00;9.95;;;3.40;;
72569;SDS011;60594;50.204;8.844;2023-05-27T05:46:26;11.15;;;3.22;;
72569;SDS011;60594;50.204;8.844;2023-05-27T05:48:53;9.98;;;3.47;;
72569;SDS011;60594;50.204;8.844;2023-05-27T05:51:28;9.18;;;3.50;;
72569;SDS011;60594;50.204;8.844;2023-05-27T05:53:58;13.05;;;3.45;;
72569;SDS011;60594;50.204;8.844;2023-05-27T05:56:25;8.85;;;3.63;;
72569;SDS011;60594;50.204;8.844;2023-05-27T05:58:54;10.13;;;3.85;;
72569;SDS011;60594;50.204;8.844;2023-05-27T06:01:22;8.40;;;3.45;;
72569;SDS011;60594;50.204;8.844;2023-05-27T06:03:49;8.75;;;3.03;;
72569;SDS011;60594;50.204;8.844;2023-05-27T06:06:33;9.80;;;3.03;;
72569;SDS011;60594;50.204;8.844;2023-05-27T06:09:24;8.38;;;3.40;;
72569;SDS011;60594;50.204;8.844;2023-05-27T06:11:54;9.23;;;3.42;;
72569;SDS011;60594;50.204;8.844;2023-05-27T06:14:21;10.05;;;3.38;;
72569;SDS011;60594;50.204;8.844;2023-05-27T06:16:49;12.20;;;3.92;;
72569;SDS011;60594;50.204;8.844;2023-05-27T06:19:15;8.07;;;3.08;;
72569;SDS011;60594;50.204;8.844;2023-05-27T06:21:42;12.02;;;3.40;;
72569;SDS011;60594;50.204;8.844;2023-05-27T06:24:31;7.65;;;3.42;;
72569;SDS011;60594;50.204;8.844;2023-05-27T06:27:08;10.15;;;3.55;;
72569;SDS011;60594;50.204;8.844;2023-05-27T06:29:35;8.10;;;2.92;;
72569;SDS011;60594;50.204;8.844;2023-05-27T06:32:01;9.25;;;3.03;;
72569;SDS011;60594;50.204;8.844;2023-05-27T06:34:28;11.15;;;3.67;;
72569;SDS011;60594;50.204;8.844;2023-05-27T06:36:55;8.85;;;3.22;;
72569;SDS011;60594;50.204;8.844;2023-05-27T06:39:22;11.07;;;3.33;;
72569;SDS011;60594;50.204;8.844;2023-05-27T06:41:49;7.75;;;3.17;;
72569;SDS011;60594;50.204;8.844;2023-05-27T06:44:48;9.27;;;3.08;;
72569;SDS011;60594;50.204;8.844;2023-05-27T06:47:21;11.75;;;2.92;;
72569;SDS011;60594;50.204;8.844;2023-05-27T06:49:49;9.82;;;3.40;;
72569;SDS011;60594;50.204;8.844;2023-05-27T06:52:15;9.45;;;3.15;;
72569;SDS011;60594;50.204;8.844;2023-05-27T06:55:07;8.93;;;3.05;;
72569;SDS011;60594;50.204;8.844;2023-05-27T06:57:52;8.05;;;3.10;;
72569;SDS011;60594;50.204;8.844;2023-05-27T07:00:25;9.07;;;2.85;;
72569;SDS011;60594;50.204;8.844;2023-05-27T07:03:11;7.68;;;2.78;;
72569;SDS011;60594;50.204;8.844;2023-05-27T07:05:38;11.90;;;2.80;;
72569;SDS011;60594;50.204;8.844;2023-05-27T07:08:05;11.15;;;3.40;;
72569;SDS011;60594;50.204;8.844;2023-05-27T07:10:32;10.73;;;3.30;;
72569;SDS011;60594;50.204;8.844;2023-05-27T07:12:58;9.48;;;3.55;;
72569;SDS011;60594;50.204;8.844;2023-05-27T07:15:38;7.70;;;2.63;;
72569;SDS011;60594;50.204;8.844;2023-05-27T07:18:05;14.35;;;3.42;;
72569;SDS011;60594;50.204;8.844;2023-05-27T07:20:32;9.00;;;3.00;;
72569;SDS011;60594;50.204;8.844;2023-05-27T07:23:00;6.85;;;2.58;;
72569;SDS011;60594;50.204;8.844;2023-05-27T07:25:27;12.15;;;3.08;;
72569;SDS011;60594;50.204;8.844;2023-05-27T07:27:54;10.50;;;2.88;;
72569;SDS011;60594;50.204;8.844;2023-05-27T07:30:20;10.02;;;2.53;;
72569;SDS011;60594;50.204;8.844;2023-05-27T07:32:53;8.02;;;2.60;;
72569;SDS011;60594;50.204;8.844;2023-05-27T07:35:20;9.25;;;3.00;;
72569;SDS011;60594;50.204;8.844;2023-05-27T07:37:46;8.77;;;2.70;;
72569;SDS011;60594;50.204;8.844;2023-05-27T07:40:13;10.05;;;3.17;;
72569;SDS011;60594;50.204;8.844;2023-05-27T07:42:40;11.98;;;2.55;;
72569;SDS011;60594;50.204;8.844;2023-05-27T07:45:07;9.77;;;2.72;;
72569;SDS011;60594;50.204;8.844;2023-05-27T07:47:34;7.72;;;3.00;;
72569;SDS011;60594;50.204;8.844;2023-05-27T07:50:00;9.70;;;2.90;;
72569;SDS011;60594;50.204;8.844;2023-05-27T07:52:27;6.47;;;2.53;;
72569;SDS011;60594;50.204;8.844;2023-05-27T07:54:54;13.55;;;2.92;;
72569;SDS011;60594;50.204;8.844;2023-05-27T07:57:21;7.93;;;2.70;;
72569;SDS011;60594;50.204;8.844;2023-05-27T07:59:48;12.32;;;3.42;;
72569;SDS011;60594;50.204;8.844;2023-05-27T08:02:15;6.80;;;2.42;;
72569;SDS011;60594;50.204;8.844;2023-05-27T08:04:43;7.85;;;2.80;;
72569;SDS011;60594;50.204;8.844;2023-05-27T08:07:27;8.13;;;2.40;;
72569;SDS011;60594;50.204;8.844;2023-05-27T08:10:09;8.00;;;2.70;;
72569;SDS011;60594;50.204;8.844;2023-05-27T08:12:48;9.05;;;2.42;;
72569;SDS011;60594;50.204;8.844;2023-05-27T08:15:33;8.05;;;2.90;;
72569;SDS011;60594;50.204;8.844;2023-05-27T08:18:15;6.38;;;2.85;;
72569;SDS011;60594;50.204;8.844;2023-05-27T08:20:58;9.20;;;2.47;;
72569;SDS011;60594;50.204;8.844;2023-05-27T08:23:46;12.65;;;3.03;;
72569;SDS011;60594;50.204;8.844;2023-05-27T08:26:33;6.47;;;2.22;;
72569;SDS011;60594;50.204;8.844;2023-05-27T08:29:14;7.38;;;2.35;;
72569;SDS011;60594;50.204;8.844;2023-05-27T08:32:08;9.45;;;2.63;;
72569;SDS011;60594;50.204;8.844;2023-05-27T08:34:35;10.35;;;2.53;;
72569;SDS011;60594;50.204;8.844;2023-05-27T08:37:03;7.82;;;2.28;;
72569;SDS011;60594;50.204;8.844;2023-05-27T08:39:33;8.40;;;2.67;;
72569;SDS011;60594;50.204;8.844;2023-05-27T08:42:11;9.02;;;2.83;;
72569;SDS011;60594;50.204;8.844;2023-05-27T08:44:38;7.78;;;2.17;;
72569;SDS011;60594;50.204;8.844;2023-05-27T08:47:06;7.38;;;2.35;;
72569;SDS011;60594;50.204;8.844;2023-05-27T08:49:34;9.15;;;2.65;;
72569;SDS011;60594;50.204;8.844;2023-05-27T08:52:01;9.43;;;2.95;;
72569;SDS011;60594;50.204;8.844;2023-05-27T08:54:29;6.60;;;2.33;;
72569;SDS011;60594;50.204;8.844;2023-05-27T08:56:59;7.80;;;2.20;;
72569;SDS011;60594;50.204;8.844;2023-05-27T08:59:29;8.05;;;2.65;;
72569;SDS011;60594;50.204;8.844;2023-05-27T09:01:57;8.75;;;2.95;;
72569;SDS011;60594;50.204;8.844;2023-05-27T09:04:24;7.30;;;2.40;;
72569;SDS011;60594;50.204;8.844;2023-05-27T09:06:51;6.28;;;2.25;;
72569;SDS011;60594;50.204;8.844;2023-05-27T09:09:18;9.18;;;2.65;;
72569;SDS011;60594;50.204;8.844;2023-05-27T09:11:45;8.60;;;2.45;;
72569;SDS011;60594;50.204;8.844;2023-05-27T09:14:21;9.85;;;2.60;;
72569;SDS011;60594;50.204;8.844;2023-05-27T09:16:47;7.22;;;2.20;;
72569;SDS011;60594;50.204;8.844;2023-05-27T09:19:17;7.32;;;2.70;;
72569;SDS011;60594;50.204;8.844;2023-05-27T09:21:44;6.88;;;2.13;;
72569;SDS011;60594;50.204;8.844;2023-05-27T09:24:11;8.05;;;2.45;;
72569;SDS011;60594;50.204;8.844;2023-05-27T09:26:38;10.80;;;3.38;;
72569;SDS011;60594;50.204;8.844;2023-05-27T09:29:07;8.80;;;3.08;;
72569;SDS011;60594;50.204;8.844;2023-05-27T09:31:40;9.55;;;2.88;;
72569;SDS011;60594;50.204;8.844;2023-05-27T09:34:12;8.90;;;2.60;;
72569;SDS011;60594;50.204;8.844;2023-05-27T09:36:47;7.88;;;2.47;;
72569;SDS011;60594;50.204;8.844;2023-05-27T09:39:15;7.07;;;2.33;;
72569;SDS011;60594;50.204;8.844;2023-05-27T09:41:43;7.85;;;2.60;;
72569;SDS011;60594;50.204;8.844;2023-05-27T09:44:16;5.55;;;2.38;;
72569;SDS011;60594;50.204;8.844;2023-05-27T09:46:42;6.93;;;2.78;;
72569;SDS011;60594;50.204;8.844;2023-05-27T09:49:13;7.20;;;2.33;;
72569;SDS011;60594;50.204;8.844;2023-05-27T09:51:41;11.63;;;2.95;;
72569;SDS011;60594;50.204;8.844;2023-05-27T09:54:07;9.77;;;2.50;;
72569;SDS011;60594;50.204;8.844;2023-05-27T09:56:37;8.13;;;2.47;;
72569;SDS011;60594;50.204;8.844;2023-05-27T09:59:04;9.48;;;2.63;;
72569;SDS011;60594;50.204;8.844;2023-05-27T10:01:32;12.63;;;2.80;;
72569;SDS011;60594;50.204;8.844;2023-05-27T10:03:59;7.78;;;2.35;;
72569;SDS011;60594;50.204;8.844;2023-05-27T10:06:26;8.50;;;2.25;;
72569;SDS011;60594;50.204;8.844;2023-05-27T10:08:52;8.05;;;2.53;;
72569;SDS011;60594;50.204;8.844;2023-05-27T10:11:19;9.18;;;2.20;;
72569;SDS011;60594;50.204;8.844;2023-05-27T10:13:45;8.63;;;2.40;;
72569;SDS011;60594;50.204;8.844;2023-05-27T10:16:19;7.63;;;2.42;;
72569;SDS011;60594;50.204;8.844;2023-05-27T10:18:47;9.18;;;2.58;;
72569;SDS011;60594;50.204;8.844;2023-05-27T10:21:19;7.53;;;2.53;;
72569;SDS011;60594;50.204;8.844;2023-05-27T10:23:56;7.45;;;2.20;;
72569;SDS011;60594;50.204;8.844;2023-05-27T10:29:34;6.75;;;2.17;;
72569;SDS011;60594;50.204;8.844;2023-05-27T10:32:03;9.98;;;2.42;;
72569;SDS011;60594;50.204;8.844;2023-05-27T10:34:36;7.25;;;2.47;;
72569;SDS011;60594;50.204;8.844;2023-05-27T10:37:03;6.35;;;2.47;;
72569;SDS011;60594;50.204;8.844;2023-05-27T10:39:30;7.00;;;2.65;;
72569;SDS011;60594;50.204;8.844;2023-05-27T10:41:57;10.07;;;2.60;;
72569;SDS011;60594;50.204;8.844;2023-05-27T10:44:27;7.22;;;2.35;;
72569;SDS011;60594;50.204;8.844;2023-05-27T10:47:01;6.10;;;2.10;;
72569;SDS011;60594;50.204;8.844;2023-05-27T10:49:35;8.45;;;2.83;;
72569;SDS011;60594;50.204;8.844;2023-05-27T10:52:16;7.28;;;2.50;;
72569;SDS011;60594;50.204;8.844;2023-05-27T10:54:46;7.45;;;2.42;;
72569;SDS011;60594;50.204;8.844;2023-05-27T10:57:14;8.68;;;2.90;;
72569;SDS011;60594;50.204;8.844;2023-05-27T10:59:53;6.80;;;2.45;;
72569;SDS011;60594;50.204;8.844;2023-05-27T11:02:24;9.00;;;2.80;;
72569;SDS011;60594;50.204;8.844;2023-05-27T11:04:57;6.88;;;2.10;;
72569;SDS011;60594;50.204;8.844;2023-05-27T11:07:23;9.07;;;2.22;;
72569;SDS011;60594;50.204;8.844;2023-05-27T11:09:52;10.02;;;2.70;;
72569;SDS011;60594;50.204;8.844;2023-05-27T11:12:20;8.40;;;2.40;;
72569;SDS011;60594;50.204;8.844;2023-05-27T11:14:49;5.75;;;2.20;;
72569;SDS011;60594;50.204;8.844;2023-05-27T11:17:20;6.40;;;2.15;;
72569;SDS011;60594;50.204;8.844;2023-05-27T11:19:47;9.05;;;3.17;;
72569;SDS011;60594;50.204;8.844;2023-05-27T11:22:16;9.93;;;3.05;;
72569;SDS011;60594;50.204;8.844;2023-05-27T11:24:44;6.55;;;2.55;;
72569;SDS011;60594;50.204;8.844;2023-05-27T11:27:22;6.47;;;2.20;;
72569;SDS011;60594;50.204;8.844;2023-05-27T11:29:49;7.40;;;2.30;;
72569;SDS011;60594;50.204;8.844;2023-05-27T11:32:19;8.20;;;2.47;;
72569;SDS011;60594;50.204;8.844;2023-05-27T11:34:46;7.82;;;2.63;;
72569;SDS011;60594;50.204;8.844;2023-05-27T11:37:14;6.78;;;2.47;;
72569;SDS011;60594;50.204;8.844;2023-05-27T11:39:59;6.90;;;2.40;;
72569;SDS011;60594;50.204;8.844;2023-05-27T11:42:27;8.90;;;3.20;;
72569;SDS011;60594;50.204;8.844;2023-05-27T11:44:54;8.18;;;2.42;;
72569;SDS011;60594;50.204;8.844;2023-05-27T11:47:22;5.78;;;2.05;;
72569;SDS011;60594;50.204;8.844;2023-05-27T11:49:49;10.13;;;2.38;;
72569;SDS011;60594;50.204;8.844;2023-05-27T11:52:16;6.07;;;2.03;;
72569;SDS011;60594;50.204;8.844;2023-05-27T11:54:43;6.18;;;2.55;;
72569;SDS011;60594;50.204;8.844;2023-05-27T11:57:10;8.35;;;2.55;;
72569;SDS011;60594;50.204;8.844;2023-05-27T11:59:38;9.02;;;2.38;;
72569;SDS011;60594;50.204;8.844;2023-05-27T12:02:04;7.05;;;2.22;;
72569;SDS011;60594;50.204;8.844;2023-05-27T12:04:31;6.15;;;2.35;;
72569;SDS011;60594;50.204;8.844;2023-05-27T12:06:58;7.60;;;2.60;;
72569;SDS011;60594;50.204;8.844;2023-05-27T12:09:26;9.52;;;2.40;;
72569;SDS011;60594;50.204;8.844;2023-05-27T12:11:53;6.32;;;2.30;;
72569;SDS011;60594;50.204;8.844;2023-05-27T12:14:20;7.38;;;2.55;;
72569;SDS011;60594;50.204;8.844;2023-05-27T12:16:48;6.00;;;2.28;;
72569;SDS011;60594;50.204;8.844;2023-05-27T12:19:15;6.95;;;2.38;;
72569;SDS011;60594;50.204;8.844;2023-05-27T12:21:42;6.80;;;2.72;;
72569;SDS011;60594;50.204;8.844;2023-05-27T12:24:08;7.10;;;2.30;;
72569;SDS011;60594;50.204;8.844;2023-05-27T12:26:35;8.88;;;2.70;;
72569;SDS011;60594;50.204;8.844;2023-05-27T12:29:03;6.45;;;2.10;;
72569;SDS011;60594;50.204;8.844;2023-05-27T12:31:29;6.57;;;2.72;;
72569;SDS011;60594;50.204;8.844;2023-05-27T12:33:56;7.60;;;2.70;;
72569;SDS011;60594;50.204;8.844;2023-05-27T12:36:22;8.13;;;2.40;;
72569;SDS011;60594;50.204;8.844;2023-05-27T12:38:48;6.50;;;2.10;;
72569;SDS011;60594;50.204;8.844;2023-05-27T12:41:15;6.75;;;2.92;;
72569;SDS011;60594;50.204;8.844;2023-05-27T12:43:41;6.22;;;2.30;;
72569;SDS011;60594;50.204;8.844;2023-05-27T12:46:08;6.57;;;2.53;;
72569;SDS011;60594;50.204;8.844;2023-05-27T12:48:34;6.65;;;2.33;;
72569;SDS011;60594;50.204;8.844;2023-05-27T12:51:01;7.28;;;2.67;;
72569;SDS011;60594;50.204;8.844;2023-05-27T12:53:29;8.02;;;2.47;;
72569;SDS011;60594;50.204;8.844;2023-05-27T12:55:55;6.40;;;2.45;;
72569;SDS011;60594;50.204;8.844;2023-05-27T12:58:22;7.30;;;2.60;;
72569;SDS011;60594;50.204;8.844;2023-05-27T13:00:49;8.68;;;2.60;;
72569;SDS011;60594;50.204;8.844;2023-05-27T13:03:15;4.57;;;1.90;;
72569;SDS011;60594;50.204;8.844;2023-05-27T13:05:42;6.65;;;2.30;;
72569;SDS011;60594;50.204;8.844;2023-05-27T13:08:08;6.85;;;2.30;;
72569;SDS011;60594;50.204;8.844;2023-05-27T13:10:36;7.00;;;2.30;;
72569;SDS011;60594;50.204;8.844;2023-05-27T13:13:02;7.82;;;2.72;;
72569;SDS011;60594;50.204;8.844;2023-05-27T13:15:29;7.07;;;2.42;;
72569;SDS011;60594;50.204;8.844;2023-05-27T13:17:56;7.15;;;2.30;;
72569;SDS011;60594;50.204;8.844;2023-05-27T13:20:25;6.00;;;2.25;;
72569;SDS011;60594;50.204;8.844;2023-05-27T13:22:54;7.30;;;2.33;;
72569;SDS011;60594;50.204;8.844;2023-05-27T13:25:20;6.40;;;2.70;;
72569;SDS011;60594;50.204;8.844;2023-05-27T13:27:47;7.90;;;2.53;;
72569;SDS011;60594;50.204;8.844;2023-05-27T13:30:14;8.05;;;2.22;;
72569;SDS011;60594;50.204;8.844;2023-05-27T13:32:42;7.30;;;2.45;;
72569;SDS011;60594;50.204;8.844;2023-05-27T13:35:10;6.85;;;2.33;;
72569;SDS011;60594;50.204;8.844;2023-05-27T13:37:41;6.28;;;2.20;;
72569;SDS011;60594;50.204;8.844;2023-05-27T13:40:08;5.57;;;2.47;;
72569;SDS011;60594;50.204;8.844;2023-05-27T13:42:36;7.65;;;2.45;;
72569;SDS011;60594;50.204;8.844;2023-05-27T13:45:03;5.95;;;2.45;;
72569;SDS011;60594;50.204;8.844;2023-05-27T13:47:30;7.40;;;2.40;;
72569;SDS011;60594;50.204;8.844;2023-05-27T13:49:57;8.57;;;2.30;;
72569;SDS011;60594;50.204;8.844;2023-05-27T13:52:24;5.85;;;2.63;;
72569;SDS011;60594;50.204;8.844;2023-05-27T13:54:50;6.90;;;2.30;;
72569;SDS011;60594;50.204;8.844;2023-05-27T13:57:17;6.82;;;2.10;;
72569;SDS011;60594;50.204;8.844;2023-05-27T13:59:44;6.25;;;2.10;;
72569;SDS011;60594;50.204;8.844;2023-05-27T14:02:10;7.72;;;2.40;;
72569;SDS011;60594;50.204;8.844;2023-05-27T14:04:37;6.63;;;2.22;;
72569;SDS011;60594;50.204;8.844;2023-05-27T14:07:04;7.78;;;2.33;;
72569;SDS011;60594;50.204;8.844;2023-05-27T14:09:31;5.28;;;1.92;;
72569;SDS011;60594;50.204;8.844;2023-05-27T14:11:57;5.85;;;2.40;;
72569;SDS011;60594;50.204;8.844;2023-05-27T14:14:24;6.75;;;2.40;;
72569;SDS011;60594;50.204;8.844;2023-05-27T14:16:51;7.00;;;2.25;;
72569;SDS011;60594;50.204;8.844;2023-05-27T14:19:18;4.97;;;2.05;;
72569;SDS011;60594;50.204;8.844;2023-05-27T14:21:44;6.68;;;1.90;;
72569;SDS011;60594;50.204;8.844;2023-05-27T14:24:11;6.65;;;2.35;;
72569;SDS011;60594;50.204;8.844;2023-05-27T14:26:38;7.40;;;2.40;;
72569;SDS011;60594;50.204;8.844;2023-05-27T14:29:05;6.60;;;2.38;;
72569;SDS011;60594;50.204;8.844;2023-05-27T14:31:31;6.40;;;2.58;;
72569;SDS011;60594;50.204;8.844;2023-05-27T14:33:58;6.97;;;2.40;;
72569;SDS011;60594;50.204;8.844;2023-05-27T14:36:25;6.70;;;2.30;;
72569;SDS011;60594;50.204;8.844;2023-05-27T14:38:52;6.00;;;2.28;;
72569;SDS011;60594;50.204;8.844;2023-05-27T14:41:18;7.15;;;2.47;;
72569;SDS011;60594;50.204;8.844;2023-05-27T14:43:45;6.35;;;2.45;;
72569;SDS011;60594;50.204;8.844;2023-05-27T14:46:12;5.88;;;2.20;;
72569;SDS011;60594;50.204;8.844;2023-05-27T14:48:39;7.63;;;2.45;;
72569;SDS011;60594;50.204;8.844;2023-05-27T14:51:05;6.03;;;1.92;;
72569;SDS011;60594;50.204;8.844;2023-05-27T14:53:33;8.07;;;2.42;;
72569;SDS011;60594;50.204;8.844;2023-05-27T14:55:59;7.00;;;2.20;;
72569;SDS011;60594;50.204;8.844;2023-05-27T14:58:26;7.10;;;2.42;;
72569;SDS011;60594;50.204;8.844;2023-05-27T15:00:52;7.00;;;2.50;;
72569;SDS011;60594;50.204;8.844;2023-05-27T15:03:19;6.85;;;2.47;;
72569;SDS011;60594;50.204;8.844;2023-05-27T15:05:46;6.32;;;2.50;;